Time;durP1;ratioP1;P1;durP2;ratioP2;P2;SDS_P1;SDS_P2;PMS_P1;PMS_P2;Temp;Humidity;BMP_temperature;BMP_pressure;BME280_temperature;BME280_humidity;BME280_pressure;Samples;Min_cycle;Max_cycle;Signal;HPM_P1;HPM_P2
2024/01/10 00:02:27;;;;;;;59.42;32.75;;;;;;;29.57;66.14;101060.19;5046733;28;66206;-39
2024/01/10 00:04:58;;;;;;;57.78;31.17;;;;;;;29.58;66.59;101061.00;5049734;28;69692;-39
2024/01/10 00:07:29;;;;;;;49.00;30.40;;;;;;;29.64;66.67;101068.31;5069871;28;65539;-40
2024/01/10 00:10:01;;;;;;;48.25;31.05;;;;;;;29.65;67.47;101056.47;5035119;28;69868;-40
2024/01/10 00:12:35;;;;;;;50.20;30.60;;;;;;;29.67;67.01;101067.91;5051811;28;66515;-40
2024/01/10 00:15:07;;;;;;;62.20;32.35;;;;;;;29.74;67.12;101071.44;5056549;28;70415;-40
2024/01/10 00:17:37;;;;;;;59.25;33.13;;;;;;;29.74;67.56;101076.84;5056589;28;65938;-39
2024/01/10 00:20:08;;;;;;;59.35;32.55;;;;;;;29.75;68.74;101078.50;5060771;28;69920;-40
2024/01/10 00:22:39;;;;;;;68.47;33.20;;;;;;;29.80;67.56;101081.41;5061902;28;66418;-40
2024/01/10 00:25:09;;;;;;;65.05;32.47;;;;;;;29.80;67.84;101086.81;5027378;28;69609;-40
2024/01/10 00:27:40;;;;;;;71.57;34.03;;;;;;;29.80;67.62;101078.72;5037162;28;66348;-40
2024/01/10 00:30:10;;;;;;;77.30;37.25;;;;;;;29.80;68.83;101081.41;5041213;28;69628;-40
2024/01/10 00:32:41;;;;;;;66.47;36.15;;;;;;;29.89;68.53;101100.13;5051909;28;66222;-40
2024/01/10 00:35:11;;;;;;;67.45;36.10;;;;;;;29.78;68.60;101075.41;5050347;28;70255;-41
2024/01/10 00:37:42;;;;;;;73.85;38.05;;;;;;;29.92;69.52;101099.72;5059269;28;66378;-39
2024/01/10 00:40:12;;;;;;;83.18;39.85;;;;;;;29.97;69.33;101102.63;5046401;28;69183;-41
2024/01/10 00:42:43;;;;;;;69.00;37.58;;;;;;;29.98;69.18;101105.16;5038013;28;65966;-40
2024/01/10 00:45:13;;;;;;;78.57;38.78;;;;;;;29.99;69.31;101111.38;5052419;28;70314;-40
2024/01/10 00:47:44;;;;;;;68.93;38.97;;;;;;;29.99;69.31;101111.38;5056636;28;65719;-40
2024/01/10 00:50:14;;;;;;;69.60;36.33;;;;;;;30.01;69.72;101114.72;5062043;28;69990;-41
2024/01/10 00:52:45;;;;;;;66.32;34.92;;;;;;;30.05;69.89;101115.94;5031044;28;65557;-41
2024/01/10 00:55:16;;;;;;;70.37;34.67;;;;;;;29.98;69.69;101107.03;5056031;28;69359;-48
2024/01/10 00:57:46;;;;;;;52.20;31.13;;;;;;;30.02;70.11;101122.59;5042715;28;65661;-40
2024/01/10 01:00:17;;;;;;;51.35;29.60;;;;;;;30.06;70.00;101123.00;5059497;28;70657;-40
2024/01/10 01:02:48;;;;;;;48.15;28.67;;;;;;;30.07;70.08;101119.28;5062889;28;65948;-40
2024/01/10 01:05:18;;;;;;;47.50;27.70;;;;;;;30.07;70.27;101119.28;5078441;28;70651;-40
2024/01/10 01:07:49;;;;;;;51.78;28.20;;;;;;;30.14;69.44;101125.50;5079343;28;66369;-41
2024/01/10 01:10:20;;;;;;;42.60;26.27;;;;;;;30.21;69.31;101129.03;5063707;28;70383;-42
2024/01/10 01:12:50;;;;;;;41.95;24.55;;;;;;;30.27;68.48;101130.13;5064298;28;66347;-40
2024/01/10 01:15:21;;;;;;;37.83;24.05;;;;;;;30.30;68.56;101132.41;5043092;28;70617;-40
2024/01/10 01:17:51;;;;;;;36.90;23.27;;;;;;;30.35;68.04;101137.19;5042039;28;66646;-41
2024/01/10 01:20:22;;;;;;;35.67;21.45;;;;;;;30.35;68.19;101142.59;5036790;28;69796;-41
2024/01/10 01:22:52;;;;;;;35.53;22.48;;;;;;;30.40;68.28;101140.09;5060950;28;65416;-41
2024/01/10 01:25:23;;;;;;;35.57;21.67;;;;;;;30.43;68.00;101145.09;5063258;28;69839;-41
2024/01/10 01:27:53;;;;;;;37.58;20.92;;;;;;;30.46;67.60;101142.78;5077264;28;66265;-41
2024/01/10 01:30:24;;;;;;;30.60;20.65;;;;;;;30.44;67.78;101130.50;5059635;28;69862;-41
2024/01/10 01:32:54;;;;;;;31.60;20.08;;;;;;;30.52;67.80;101142.97;5055391;28;66043;-41
2024/01/10 01:35:25;;;;;;;31.23;21.40;;;;;;;30.55;68.10;101142.56;5053157;28;70045;-41
2024/01/10 01:37:56;;;;;;;34.63;19.38;;;;;;;30.54;68.08;101144.44;5047012;28;66724;-41
2024/01/10 01:40:26;;;;;;;43.13;20.75;;;;;;;30.49;67.82;101128.00;5041290;28;70602;-41
2024/01/10 01:42:57;;;;;;;29.00;19.70;;;;;;;30.57;67.49;101135.88;5047198;28;66715;-41
2024/01/10 01:45:27;;;;;;;31.40;19.58;;;;;;;30.60;67.43;101140.88;5041412;28;69382;-41
2024/01/10 01:47:57;;;;;;;33.63;19.40;;;;;;;30.59;68.03;101139.22;5033772;28;65483;-41
2024/01/10 01:50:28;;;;;;;28.27;19.83;;;;;;;30.62;67.47;101138.78;5047196;28;70229;-41
2024/01/10 01:52:59;;;;;;;28.38;17.17;;;;;;;30.62;67.51;101138.78;5044376;28;67679;-40
2024/01/10 01:55:30;;;;;;;31.63;19.52;;;;;;;30.63;67.27;101140.44;5060334;28;70632;-40
2024/01/10 01:58:00;;;;;;;28.52;17.70;;;;;;;30.67;67.89;101144.41;5035803;28;66006;-41
2024/01/10 02:00:31;;;;;;;26.85;18.25;;;;;;;30.62;67.56;101133.38;5046445;28;70045;-41
2024/01/10 02:03:03;;;;;;;32.80;17.97;;;;;;;30.67;67.59;101144.41;5045929;28;66134;-41
2024/01/10 02:05:33;;;;;;;;;;;;;;;30.34;68.54;101149.03;5049793;28;70809;-41
2024/01/10 02:08:04;;;;;;;24.35;16.85;;;;;;;30.67;67.87;101144.41;5040644;28;66190;-41
2024/01/10 02:10:35;;;;;;;22.20;16.43;;;;;;;30.66;67.38;101145.44;5038715;28;70008;-41
2024/01/10 02:13:08;;;;;;;24.75;17.17;;;;;;;30.72;67.39;101143.75;5040598;28;65675;-41
2024/01/10 02:15:39;;;;;;;27.83;16.67;;;;;;;30.76;67.78;101150.41;5040545;28;71468;-41
2024/01/10 02:18:14;;;;;;;28.33;16.98;;;;;;;30.78;67.28;101147.47;5044635;28;66550;-40
2024/01/10 02:20:45;;;;;;;21.45;15.57;;;;;;;30.81;67.14;101147.09;5053913;28;70179;-40
2024/01/10 02:23:15;;;;;;;24.30;16.38;;;;;;;30.82;67.73;101143.34;5037246;28;65459;-41
2024/01/10 02:25:46;;;;;;;20.10;14.95;;;;;;;30.83;67.71;101145.00;5054093;28;69595;-41
2024/01/10 02:28:17;;;;;;;22.92;14.93;;;;;;;30.81;67.81;101136.25;5052879;28;66484;-41
2024/01/10 02:30:47;;;;;;;18.13;15.00;;;;;;;30.86;67.65;101144.56;5039457;28;70306;-41
2024/01/10 02:33:18;;;;;;;19.85;13.82;;;;;;;30.84;67.46;101125.00;5040212;28;65691;-40
2024/01/10 02:35:48;;;;;;;18.80;15.25;;;;;;;30.90;67.64;101145.81;5050304;28;70038;-40
2024/01/10 02:38:21;;;;;;;20.83;14.98;;;;;;;30.91;67.23;101139.34;5056650;28;65900;-41
2024/01/10 02:40:51;;;;;;;19.30;15.23;;;;;;;30.80;67.41;101118.34;5048719;28;69931;-42
2024/01/10 02:43:22;;;;;;;16.42;13.55;;;;;;;30.94;67.27;101133.50;5044504;28;65715;-41
2024/01/10 02:45:53;;;;;;;18.77;13.80;;;;;;;30.96;67.34;101127.88;5053486;28;70218;-41
2024/01/10 02:48:23;;;;;;;15.60;13.68;;;;;;;30.97;67.77;101138.47;5053460;28;66334;-42
2024/01/10 02:50:55;;;;;;;20.67;14.13;;;;;;;30.98;67.31;101125.75;5051759;28;69630;-41
2024/01/10 02:53:26;;;;;;;18.30;13.93;;;;;;;30.91;67.58;101114.97;5067389;28;65153;-41
2024/01/10 02:55:56;;;;;;;22.10;15.15;;;;;;;31.02;67.54;101127.84;5055657;28;69185;-46
2024/01/10 02:58:28;;;;;;;22.00;14.40;;;;;;;31.04;67.38;101122.22;5049266;28;65681;-41
2024/01/10 03:00:58;;;;;;;18.40;15.05;;;;;;;31.04;67.47;101119.50;5071732;28;69490;-42
2024/01/10 03:03:29;;;;;;;17.87;13.80;;;;;;;30.98;67.40;101109.50;5045742;28;66569;-41
2024/01/10 03:06:00;;;;;;;21.02;14.52;;;;;;;31.08;67.28;101124.25;5053443;28;69781;-41
2024/01/10 03:08:31;;;;;;;14.38;12.65;;;;;;;31.07;67.27;101111.78;5053035;28;66627;-41
2024/01/10 03:11:01;;;;;;;16.15;13.10;;;;;;;30.67;67.31;101037.94;5053247;28;70292;-41
2024/01/10 03:13:32;;;;;;;14.88;12.52;;;;;;;31.15;66.99;101116.94;5053037;28;65938;-41
2024/01/10 03:16:03;;;;;;;17.23;13.07;;;;;;;31.14;67.62;101104.41;5066695;28;70040;-40
2024/01/10 03:18:34;;;;;;;14.45;12.60;;;;;;;31.12;67.45;101106.53;5039161;28;66830;-41
2024/01/10 03:21:05;;;;;;;13.07;11.90;;;;;;;31.15;67.62;101089.84;5068722;28;69018;-41
2024/01/10 03:23:35;;;;;;;16.33;12.77;;;;;;;31.23;67.64;101096.03;5050101;28;66820;-41
2024/01/10 03:26:05;;;;;;;15.07;12.48;;;;;;;31.25;67.10;101093.94;5073582;28;70009;-41
2024/01/10 03:28:36;;;;;;;13.55;11.95;;;;;;;31.20;67.17;101080.22;5051612;28;65721;-42
2024/01/10 03:31:08;;;;;;;13.05;11.27;;;;;;;31.27;67.07;101091.84;5040168;28;69391;-41
2024/01/10 03:33:38;;;;;;;13.45;12.07;;;;;;;31.30;67.31;101089.53;5037681;28;66705;-42
2024/01/10 03:36:13;;;;;;;15.07;11.32;;;;;;;31.23;67.31;101066.22;5040114;28;70270;-41
2024/01/10 03:38:45;;;;;;;14.60;12.32;;;;;;;31.34;67.00;101081.78;5040288;28;65834;-41
2024/01/10 03:41:17;;;;;;;12.40;11.10;;;;;;;31.35;67.26;101086.19;5040396;28;70286;-41
2024/01/10 03:43:48;;;;;;;13.95;11.27;;;;;;;31.38;66.94;101072.22;5041601;28;66329;-42
2024/01/10 03:46:19;;;;;;;13.35;11.98;;;;;;;31.40;66.89;101072.84;5029264;28;70599;-41
2024/01/10 03:48:50;;;;;;;12.98;11.73;;;;;;;31.33;67.36;101053.03;5041619;28;66749;-42
2024/01/10 03:51:21;;;;;;;14.32;11.75;;;;;;;31.41;67.23;101066.34;5035801;28;70291;-41
2024/01/10 03:53:51;;;;;;;12.27;11.05;;;;;;;31.46;67.19;101063.81;5036501;28;66612;-43
2024/01/10 03:56:22;;;;;;;13.93;11.23;;;;;;;31.47;67.36;101060.03;5039911;28;69131;-41
2024/01/10 03:58:53;;;;;;;11.55;10.55;;;;;;;31.38;67.43;101043.22;5042173;28;65568;-44
2024/01/10 04:01:23;;;;;;;12.10;10.85;;;;;;;31.53;67.09;101052.91;5039334;28;70342;-41
2024/01/10 04:03:54;;;;;;;12.20;10.50;;;;;;;31.53;66.78;101047.50;5035633;28;66258;-41
2024/01/10 04:06:26;;;;;;;12.52;11.02;;;;;;;31.56;67.33;101052.47;5037697;28;69938;-40
2024/01/10 04:08:56;;;;;;;16.60;11.88;;;;;;;31.57;67.04;101043.31;5041304;28;66135;-41
2024/01/10 04:11:27;;;;;;;13.15;11.88;;;;;;;31.60;67.20;101038.25;5040035;28;70251;-41
2024/01/10 04:13:57;;;;;;;12.75;11.55;;;;;;;31.64;66.68;101032.38;5038698;28;66632;-41
2024/01/10 04:16:28;;;;;;;11.60;10.52;;;;;;;31.62;66.95;101024.47;5035827;28;70825;-40
2024/01/10 04:18:59;;;;;;;12.48;11.25;;;;;;;31.67;67.18;101023.81;5037534;28;65837;-41
2024/01/10 04:21:30;;;;;;;12.55;11.10;;;;;;;31.67;66.91;101002.94;5055466;28;69293;-40
2024/01/10 04:24:00;;;;;;;12.32;11.13;;;;;;;31.72;67.05;101007.69;5057422;28;66084;-41
2024/01/10 04:26:32;;;;;;;14.18;11.40;;;;;;;31.74;66.79;101005.59;5060005;28;69663;-41
2024/01/10 04:29:02;;;;;;;12.00;10.77;;;;;;;31.73;66.93;100993.06;5043414;28;65303;-41
2024/01/10 04:31:35;;;;;;;11.88;10.77;;;;;;;31.63;66.88;100971.91;5057310;28;70817;-41
2024/01/10 04:34:06;;;;;;;12.15;11.10;;;;;;;31.81;66.83;100992.78;5043059;28;67110;-41
2024/01/10 04:36:36;;;;;;;12.90;11.50;;;;;;;31.82;66.70;100986.31;5057781;28;70104;-41
2024/01/10 04:39:07;;;;;;;14.52;11.18;;;;;;;31.82;66.88;100981.72;5041920;28;66204;-41
2024/01/10 04:41:39;;;;;;;11.80;10.77;;;;;;;31.85;66.67;100980.44;5042361;28;71849;-41
2024/01/10 04:44:09;;;;;;;;;;;;;;;31.56;68.05;100969.25;5042233;28;66487;-41
2024/01/10 04:46:41;;;;;;;11.00;10.00;;;;;;;31.81;66.67;100963.78;5042531;28;70618;-40
2024/01/10 04:49:11;;;;;;;13.63;11.30;;;;;;;31.89;66.81;100959.94;5043665;28;66439;-41
2024/01/10 04:51:42;;;;;;;12.15;11.07;;;;;;;31.92;66.87;100969.53;5040934;28;71180;-42
2024/01/10 04:54:13;;;;;;;13.57;11.25;;;;;;;31.95;66.79;100959.06;5043411;28;65700;-41
2024/01/10 04:56:43;;;;;;;12.45;11.00;;;;;;;31.92;66.55;100948.66;5059243;28;69916;-41
2024/01/10 04:59:14;;;;;;;12.23;11.13;;;;;;;31.99;66.60;100944.00;5028375;28;66742;-41
2024/01/10 05:01:45;;;;;;;12.90;11.63;;;;;;;32.01;66.69;100941.06;5044062;28;69452;-40
2024/01/10 05:04:17;;;;;;;12.00;10.98;;;;;;;32.01;66.59;100941.91;5044579;28;65680;-41
2024/01/10 05:06:47;;;;;;;11.52;10.52;;;;;;;32.02;66.70;100927.28;5042283;28;70467;-42
2024/01/10 05:09:18;;;;;;;14.07;11.90;;;;;;;32.05;66.37;100917.84;5044551;28;65974;-41
2024/01/10 05:11:51;;;;;;;15.55;11.65;;;;;;;32.01;66.47;100909.34;5040397;28;69487;-41
2024/01/10 05:14:21;;;;;;;17.13;11.82;;;;;;;32.05;66.28;100904.28;5035081;28;66555;-42
2024/01/10 05:16:53;;;;;;;13.35;11.70;;;;;;;32.11;66.40;100902.53;5044247;28;69023;-42
2024/01/10 05:19:23;;;;;;;11.98;10.75;;;;;;;32.09;66.42;100901.94;5042887;28;65325;-41
2024/01/10 05:21:54;;;;;;;12.75;11.35;;;;;;;32.13;66.47;100897.72;5033789;28;70711;-41
2024/01/10 05:24:25;;;;;;;12.85;11.52;;;;;;;32.15;66.36;100895.59;5061290;28;66097;-42
2024/01/10 05:26:55;;;;;;;12.90;11.57;;;;;;;32.17;66.57;100897.03;5042690;28;70229;-40
2024/01/10 05:29:27;;;;;;;12.15;11.02;;;;;;;32.13;66.50;100882.25;5055518;28;66345;-41
2024/01/10 05:31:58;;;;;;;12.32;11.07;;;;;;;32.12;66.57;100877.88;5049941;28;70365;-41
2024/01/10 05:34:29;;;;;;;13.07;11.80;;;;;;;32.18;66.10;100876.13;5042282;28;65797;-41
2024/01/10 05:37:00;;;;;;;13.13;11.27;;;;;;;32.21;66.00;100872.97;5036599;28;69457;-42
2024/01/10 05:39:30;;;;;;;12.48;11.45;;;;;;;32.15;66.08;100860.31;5050732;28;66350;-42
2024/01/10 05:42:03;;;;;;;12.30;11.05;;;;;;;31.98;66.19;100831.13;5059836;28;70037;-44
2024/01/10 05:44:33;;;;;;;12.63;11.48;;;;;;;32.24;66.18;100864.38;5040180;28;66869;-44
2024/01/10 05:47:04;;;;;;;12.43;11.35;;;;;;;32.27;66.21;100863.91;5037811;28;69420;-41
2024/01/10 05:49:35;;;;;;;12.35;11.40;;;;;;;32.28;66.24;100860.13;5059313;28;65923;-42
2024/01/10 05:52:05;;;;;;;12.80;11.63;;;;;;;32.30;66.09;100852.59;5075565;28;70054;-42
2024/01/10 05:54:36;;;;;;;11.48;10.68;;;;;;;32.33;66.12;100852.13;5059841;28;65240;-40
2024/01/10 05:57:07;;;;;;;;;;;;;;;32.08;67.11;100838.69;5041169;28;69414;-42
2024/01/10 05:59:38;;;;;;;11.60;10.70;;;;;;;32.34;66.17;100834.78;5060438;28;66521;-41
2024/01/10 06:02:08;;;;;;;11.70;10.88;;;;;;;32.38;66.04;100827.84;5062131;28;70411;-42
2024/01/10 06:04:39;;;;;;;12.63;11.40;;;;;;;32.39;66.04;100832.19;5059903;28;65606;-42
2024/01/10 06:07:10;;;;;;;13.77;12.48;;;;;;;32.40;65.90;100820.28;5061003;28;70246;-41
2024/01/10 06:09:40;;;;;;;14.98;11.70;;;;;;;32.37;65.96;100801.72;5060097;28;64328;-42
2024/01/10 06:12:11;;;;;;;15.77;12.70;;;;;;;32.45;65.85;100809.53;5047484;28;69705;-41
2024/01/10 06:14:41;;;;;;;14.40;12.38;;;;;;;32.49;65.79;100812.66;5060511;28;66713;-42
2024/01/10 06:17:12;;;;;;;16.00;13.00;;;;;;;32.49;65.96;100810.78;5053755;28;69371;-41
2024/01/10 06:19:43;;;;;;;14.07;12.73;;;;;;;32.52;65.64;100803.22;5069232;28;66807;-42
2024/01/10 06:22:14;;;;;;;15.18;13.68;;;;;;;32.55;65.72;100794.63;5058437;28;69785;-41
2024/01/10 06:24:44;;;;;;;16.67;13.93;;;;;;;32.49;65.61;100785.53;5057095;28;66068;-40
2024/01/10 06:27:15;;;;;;;15.52;13.95;;;;;;;32.45;65.66;100774.25;5040222;28;70188;-44
2024/01/10 06:29:46;;;;;;;21.80;14.52;;;;;;;32.58;65.61;100777.84;5042726;28;66263;-41
2024/01/10 06:32:17;;;;;;;14.98;13.60;;;;;;;32.52;65.53;100757.06;5039075;28;70195;-41
2024/01/10 06:34:47;;;;;;;16.23;13.65;;;;;;;32.63;65.80;100764.41;5053420;28;66877;-41
2024/01/10 06:37:18;;;;;;;16.08;14.38;;;;;;;32.66;65.45;100758.50;5051688;28;70770;-41
2024/01/10 06:39:49;;;;;;;15.43;14.02;;;;;;;32.62;65.64;100741.00;5030293;28;66314;-41
2024/01/10 06:42:20;;;;;;;15.57;14.07;;;;;;;32.69;65.15;100747.16;5043458;28;69443;-41
2024/01/10 06:44:50;;;;;;;16.10;14.10;;;;;;;32.56;65.24;100723.75;5050689;28;67131;-41
2024/01/10 06:47:21;;;;;;;15.32;13.82;;;;;;;32.72;65.47;100738.53;5051696;28;70477;-43
2024/01/10 06:49:52;;;;;;;16.00;14.40;;;;;;;32.74;65.47;100743.75;5054061;28;65934;-41
2024/01/10 06:52:22;;;;;;;16.05;14.45;;;;;;;32.43;65.28;100683.22;5054521;28;70097;-40
2024/01/10 06:54:53;;;;;;;15.63;14.23;;;;;;;32.77;65.47;100726.97;5047377;28;64978;-41
2024/01/10 06:57:23;;;;;;;15.52;13.57;;;;;;;32.78;65.34;100728.63;5047764;28;70546;-42
2024/01/10 06:59:53;;;;;;;15.82;14.23;;;;;;;32.82;65.34;100727.06;5050321;28;66126;-41
2024/01/10 07:02:24;;;;;;;15.35;14.05;;;;;;;32.75;65.27;100710.06;5048669;28;70607;-42
2024/01/10 07:04:56;;;;;;;16.75;14.68;;;;;;;32.83;65.27;100710.53;5047173;28;67027;-42
2024/01/10 07:07:26;;;;;;;15.48;14.00;;;;;;;32.75;64.93;100696.50;5046503;28;70330;-42
2024/01/10 07:09:57;;;;;;;16.42;14.10;;;;;;;32.84;65.11;100690.44;5042521;28;66437;-42
2024/01/10 07:12:27;;;;;;;15.57;13.95;;;;;;;32.85;65.45;100703.00;5047827;28;70433;-42
2024/01/10 07:14:58;;;;;;;16.13;14.45;;;;;;;32.92;64.62;100703.66;5054578;27;66452;-42
2024/01/10 07:17:29;;;;;;;15.23;13.70;;;;;;;32.87;64.98;100691.88;5035551;28;70846;-41
2024/01/10 07:20:00;;;;;;;15.88;14.57;;;;;;;32.93;64.91;100699.91;5056688;28;66105;-41
2024/01/10 07:22:33;;;;;;;15.48;13.88;;;;;;;32.96;65.06;100695.88;5059857;28;69867;-42
2024/01/10 07:25:04;;;;;;;14.70;13.20;;;;;;;32.99;65.14;100702.72;5052877;28;66136;-42
2024/01/10 07:27:38;;;;;;;16.83;15.13;;;;;;;33.00;64.71;100690.81;5053926;28;69316;-42
2024/01/10 07:30:16;;;;;;;15.90;14.43;;;;;;;33.02;64.85;100691.41;5059977;28;65413;-41
2024/01/10 07:32:47;;;;;;;16.23;14.68;;;;;;;33.02;64.91;100689.53;5045764;28;70438;-42
2024/01/10 07:35:18;;;;;;;19.90;14.98;;;;;;;32.96;64.98;100678.72;5060628;28;66102;-41
2024/01/10 07:37:49;;;;;;;18.52;14.75;;;;;;;33.06;64.86;100677.09;5057218;28;69718;-41
2024/01/10 07:40:19;;;;;;;18.13;15.32;;;;;;;33.08;64.51;100679.59;5038068;28;66384;-41
2024/01/10 07:42:50;;;;;;;16.45;14.85;;;;;;;33.05;64.73;100666.47;5040750;28;70046;-42
2024/01/10 07:45:21;;;;;;;18.65;14.65;;;;;;;33.09;64.49;100670.34;5028496;28;66096;-41
2024/01/10 07:47:52;;;;;;;14.98;13.60;;;;;;;33.10;64.72;100670.13;5040614;28;69781;-42
2024/01/10 07:50:27;;;;;;;16.65;15.05;;;;;;;33.13;64.76;100663.38;5059923;28;65563;-41
2024/01/10 07:52:58;;;;;;;17.67;15.55;;;;;;;33.08;64.61;100646.97;5058561;28;69778;-41
2024/01/10 07:55:29;;;;;;;16.23;14.73;;;;;;;33.06;64.59;100643.66;5052285;28;66016;-41
2024/01/10 07:58:01;;;;;;;16.55;15.02;;;;;;;33.16;64.51;100654.75;5051341;28;68872;-41
2024/01/10 08:00:31;;;;;;;16.48;14.88;;;;;;;33.17;64.58;100656.38;5041039;28;65223;-41
2024/01/10 08:03:02;;;;;;;15.77;14.27;;;;;;;33.20;64.73;100650.47;5039918;28;69622;-41
2024/01/10 08:05:33;;;;;;;16.00;14.50;;;;;;;33.14;64.35;100646.00;5038249;28;65917;-42
2024/01/10 08:08:05;;;;;;;14.50;13.40;;;;;;;33.21;64.43;100652.13;5039709;28;71682;-41
2024/01/10 08:10:36;;;;;;;15.70;14.23;;;;;;;33.21;64.44;100648.56;5049146;28;65273;-41
2024/01/10 08:13:08;;;;;;;15.75;14.35;;;;;;;33.26;64.45;100646.78;5039223;28;70404;-40
2024/01/10 08:15:38;;;;;;;15.38;13.65;;;;;;;33.28;64.58;100651.97;5033558;28;66051;-42
2024/01/10 08:18:09;;;;;;;15.15;13.70;;;;;;;33.28;64.54;100647.38;5037060;28;69753;-41
2024/01/10 08:20:40;;;;;;;16.67;15.07;;;;;;;33.29;64.54;100657.19;5038558;28;66337;-41
2024/01/10 08:23:10;;;;;;;15.10;13.65;;;;;;;33.34;64.39;100657.25;5040226;28;70342;-43
2024/01/10 08:25:43;;;;;;;15.63;13.73;;;;;;;33.32;64.40;100643.09;5040802;28;66562;-41
2024/01/10 08:28:14;;;;;;;14.73;13.55;;;;;;;33.37;64.43;100648.63;5039069;28;70154;-47
2024/01/10 08:30:45;;;;;;;15.07;13.75;;;;;;;33.23;64.35;100628.22;5038228;28;66137;-42
2024/01/10 08:33:17;;;;;;;15.03;13.67;;;;;;;33.41;64.30;100656.31;5026411;28;70081;-41
2024/01/10 08:35:48;;;;;;;16.00;14.50;;;;;;;33.44;64.46;100655.81;5056205;28;65896;-41
2024/01/10 08:38:19;;;;;;;16.77;14.32;;;;;;;33.42;64.11;100653.34;5039714;28;69712;-41
2024/01/10 08:40:50;;;;;;;15.68;14.38;;;;;;;33.42;64.34;100658.78;5039515;28;66155;-42
2024/01/10 08:43:21;;;;;;;14.65;13.45;;;;;;;33.46;64.31;100659.94;5040677;28;70103;-41
2024/01/10 08:45:51;;;;;;;15.57;14.23;;;;;;;33.51;63.86;100661.94;5041423;28;66368;-41
2024/01/10 08:48:22;;;;;;;18.77;14.05;;;;;;;33.51;64.17;100661.94;5032219;28;70392;-41
2024/01/10 08:50:55;;;;;;;16.05;14.73;;;;;;;33.54;64.05;100665.03;5034128;28;65835;-42
2024/01/10 08:53:26;;;;;;;14.38;13.40;;;;;;;33.49;64.15;100654.03;5040668;28;70782;-42
2024/01/10 08:55:58;;;;;;;15.90;14.57;;;;;;;33.56;63.72;100664.78;5038828;28;66389;-42
2024/01/10 08:58:28;;;;;;;15.75;14.50;;;;;;;33.59;63.96;100667.00;5036862;28;70383;-43
2024/01/10 09:00:59;;;;;;;16.45;15.00;;;;;;;33.61;63.71;100667.59;5040827;28;66151;-41
2024/01/10 09:03:30;;;;;;;17.73;15.98;;;;;;;33.59;63.66;100665.09;5036978;28;69899;-42
2024/01/10 09:06:03;;;;;;;16.55;15.25;;;;;;;33.62;63.63;100668.41;5041225;28;66248;-42
2024/01/10 09:08:40;;;;;;;17.92;16.02;;;;;;;33.64;63.93;100666.28;5041740;28;70150;-41
2024/01/10 09:11:11;;;;;;;18.53;16.60;;;;;;;33.65;63.84;100673.34;5037180;28;66833;-42
2024/01/10 09:13:42;;;;;;;17.52;15.93;;;;;;;33.66;63.65;100673.13;5035155;28;69774;-41
2024/01/10 09:16:12;;;;;;;23.02;18.38;;;;;;;33.41;64.13;100667.19;5042272;28;66437;-40
2024/01/10 09:18:43;;;;;;;32.95;20.13;;;;;;;33.27;65.00;100672.91;5048085;28;70283;-41
2024/01/10 09:21:13;;;;;;;24.83;20.25;;;;;;;33.24;65.57;100678.84;5048796;28;66084;-41
2024/01/10 09:23:44;;;;;;;36.63;21.75;;;;;;;33.21;65.91;100682.03;5076194;28;69869;-41
2024/01/10 09:26:14;;;;;;;44.38;24.42;;;;;;;33.21;65.97;100684.75;5061960;28;65621;-41
2024/01/10 09:28:48;;;;;;;42.08;24.75;;;;;;;33.29;65.78;100681.66;5061769;28;70375;-41
2024/01/10 09:31:18;;;;;;;38.65;25.17;;;;;;;33.39;65.69;100686.44;5047152;28;66342;-40
2024/01/10 09:33:49;;;;;;;39.00;25.20;;;;;;;33.44;65.35;100689.28;5062218;28;70053;-42
2024/01/10 09:36:20;;;;;;;36.33;25.90;;;;;;;33.52;65.75;100697.09;5060879;28;67258;-41
2024/01/10 09:38:50;;;;;;;40.13;25.77;;;;;;;33.49;65.52;100696.69;5060151;28;70076;-43
2024/01/10 09:41:21;;;;;;;38.08;26.17;;;;;;;33.58;65.52;100708.88;5030804;28;66169;-41
2024/01/10 09:43:52;;;;;;;40.25;27.35;;;;;;;33.59;65.29;100713.25;5036070;28;69437;-41
2024/01/10 09:46:23;;;;;;;37.72;28.25;;;;;;;33.57;65.63;100708.06;5041416;28;66535;-42
2024/01/10 09:48:54;;;;;;;50.53;28.30;;;;;;;33.59;65.52;100713.25;5054407;28;69742;-42
2024/01/10 09:51:29;;;;;;;39.22;27.98;;;;;;;33.65;65.21;100712.25;5033355;28;66082;-40
2024/01/10 09:54:04;;;;;;;32.35;27.55;;;;;;;33.42;65.39;100687.88;5041910;28;69822;-42
2024/01/10 09:56:35;;;;;;;36.40;26.15;;;;;;;33.67;65.33;100726.44;5041559;28;66496;-41
2024/01/10 09:59:10;;;;;;;37.90;27.40;;;;;;;33.68;65.42;100725.38;5057673;28;70152;-42
2024/01/10 10:01:44;;;;;;;36.65;26.05;;;;;;;33.59;65.49;100718.69;5047486;28;66278;-42
2024/01/10 10:04:18;;;;;;;32.70;25.88;;;;;;;33.57;65.24;100715.38;5046270;28;69920;-41
2024/01/10 10:07:00;;;;;;;36.42;25.73;;;;;;;33.65;66.26;100747.63;5064906;28;65542;-42
2024/01/10 10:09:32;;;;;;;30.55;23.73;;;;;;;33.69;65.65;100739.81;5052203;28;70185;-41
2024/01/10 10:12:02;;;;;;;33.42;24.20;;;;;;;33.67;65.66;100734.59;5046471;28;66107;-41
2024/01/10 10:14:33;;;;;;;25.95;22.02;;;;;;;33.67;65.16;100753.66;5054944;28;70128;-41
2024/01/10 10:17:17;;;;;;;26.25;21.15;;;;;;;33.63;66.33;100752.50;5040882;28;65713;-41
2024/01/10 10:19:48;;;;;;;34.15;21.95;;;;;;;33.65;65.55;100749.53;5055589;28;69702;-41
2024/01/10 10:22:19;;;;;;;27.23;19.80;;;;;;;33.61;65.69;100754.63;5061736;28;65413;-41
2024/01/10 10:24:50;;;;;;;21.57;18.63;;;;;;;33.50;65.88;100737.25;5061483;28;69617;-41
2024/01/10 10:27:21;;;;;;;20.08;17.70;;;;;;;33.55;65.78;100750.97;5062437;28;66330;-42
2024/01/10 10:29:51;;;;;;;19.67;17.35;;;;;;;33.55;65.95;100750.16;5062140;28;70318;-41
2024/01/10 10:32:22;;;;;;;17.50;15.80;;;;;;;33.52;65.99;100765.06;5059943;28;64434;-40
2024/01/10 10:34:56;;;;;;;16.97;15.47;;;;;;;33.49;65.96;100762.81;5049664;28;70448;-41
2024/01/10 10:37:26;;;;;;;16.98;14.48;;;;;;;33.49;66.39;100762.81;5062727;28;66173;-42
2024/01/10 10:39:57;;;;;;;19.90;15.18;;;;;;;33.50;66.27;100766.34;5042691;28;70474;-42
2024/01/10 10:42:31;;;;;;;15.75;14.30;;;;;;;33.42;66.61;100750.41;5049684;28;65621;-43
2024/01/10 10:45:04;;;;;;;15.32;14.02;;;;;;;33.22;66.25;100727.16;5051552;28;70631;-43
2024/01/10 10:47:38;;;;;;;13.05;12.05;;;;;;;33.45;66.43;100760.78;5061838;28;66036;-42
2024/01/10 10:50:14;;;;;;;14.63;12.88;;;;;;;32.70;66.41;100651.03;5076532;28;69852;-41
2024/01/10 10:52:49;;;;;;;13.25;11.93;;;;;;;33.42;66.11;100764.00;5046570;28;66520;-42
2024/01/10 10:55:20;;;;;;;14.30;11.60;;;;;;;33.41;66.42;100765.06;5047182;28;69324;-42
2024/01/10 10:57:51;;;;;;;12.40;10.98;;;;;;;33.36;66.62;100766.59;5048037;28;65945;-42
2024/01/10 11:00:33;;;;;;;13.40;12.05;;;;;;;33.34;66.31;100776.88;5046985;28;70384;-41
2024/01/10 11:03:05;;;;;;;18.87;10.50;;;;;;;32.92;66.41;100698.22;5048744;28;67720;-42
2024/01/10 11:05:40;;;;;;;12.15;10.95;;;;;;;33.27;66.34;100764.50;5052866;28;69238;-43
2024/01/10 11:08:15;;;;;;;12.00;10.50;;;;;;;33.29;66.32;100757.78;5047844;28;66610;-42
2024/01/10 11:10:49;;;;;;;10.98;10.05;;;;;;;33.32;66.42;100779.03;5050904;28;70194;-42
2024/01/10 11:13:28;;;;;;;10.63;9.52;;;;;;;33.33;66.43;100785.31;5027902;28;66080;-42
2024/01/10 11:16:31;;;;;;;9.50;8.82;;;;;;;33.19;67.11;100789.34;5045113;28;70963;-41
2024/01/10 11:19:01;;;;;;;11.18;9.23;;;;;;;33.30;66.23;100792.03;5056449;28;66251;-42
2024/01/10 11:22:05;;;;;;;10.93;9.82;;;;;;;33.20;66.62;100785.56;5041763;28;44072;-42
2024/01/10 11:24:36;;;;;;;9.77;8.80;;;;;;;33.18;66.53;100788.50;5042210;28;66194;-47
2024/01/10 11:27:08;;;;;;;10.40;9.37;;;;;;;33.00;66.41;100764.19;5057570;28;68787;-42
2024/01/10 11:29:40;;;;;;;13.82;9.90;;;;;;;33.25;65.95;100800.06;5070601;28;65430;-41
2024/01/10 11:32:14;;;;;;;;;;;;;;;32.97;67.51;100802.69;5042119;28;70146;-42